sensor_id;sensor_type;location;lat;lon;timestamp;temperature;humidity
75457;SHT31;64036;48.266;14.192;2023-05-10T00:00:34;13.11;57.96
75457;SHT31;64036;48.266;14.192;2023-05-10T00:02:59;13.11;57.99
75457;SHT31;64036;48.266;14.192;2023-05-10T00:05:28;13.10;57.97
75457;SHT31;64036;48.266;14.192;2023-05-10T00:07:54;13.09;58.03
75457;SHT31;64036;48.266;14.192;2023-05-10T00:10:22;13.08;58.01
75457;SHT31;64036;48.266;14.192;2023-05-10T00:12:48;13.06;57.96
75457;SHT31;64036;48.266;14.192;2023-05-10T00:15:14;13.04;57.94
75457;SHT31;64036;48.266;14.192;2023-05-10T00:17:42;13.04;57.91
75457;SHT31;64036;48.266;14.192;2023-05-10T00:20:08;13.03;57.92
75457;SHT31;64036;48.266;14.192;2023-05-10T00:22:40;13.01;57.89
75457;SHT31;64036;48.266;14.192;2023-05-10T00:25:06;13.00;57.90
75457;SHT31;64036;48.266;14.192;2023-05-10T00:27:33;12.98;57.98
75457;SHT31;64036;48.266;14.192;2023-05-10T00:29:58;12.97;57.96
75457;SHT31;64036;48.266;14.192;2023-05-10T00:32:24;12.93;58.01
75457;SHT31;64036;48.266;14.192;2023-05-10T00:34:50;12.91;58.06
75457;SHT31;64036;48.266;14.192;2023-05-10T00:37:16;12.88;58.11
75457;SHT31;64036;48.266;14.192;2023-05-10T00:39:41;12.85;58.20
75457;SHT31;64036;48.266;14.192;2023-05-10T00:42:07;12.82;58.19
75457;SHT31;64036;48.266;14.192;2023-05-10T00:44:33;12.81;58.20
75457;SHT31;64036;48.266;14.192;2023-05-10T00:46:58;12.78;58.25
75457;SHT31;64036;48.266;14.192;2023-05-10T00:49:25;12.77;58.10
75457;SHT31;64036;48.266;14.192;2023-05-10T00:51:51;12.78;58.13
75457;SHT31;64036;48.266;14.192;2023-05-10T00:54:17;12.77;58.14
75457;SHT31;64036;48.266;14.192;2023-05-10T00:56:42;12.77;58.08
75457;SHT31;64036;48.266;14.192;2023-05-10T00:59:14;12.75;58.12
75457;SHT31;64036;48.266;14.192;2023-05-10T01:01:42;12.73;58.14
75457;SHT31;64036;48.266;14.192;2023-05-10T01:04:11;12.70;58.10
75457;SHT31;64036;48.266;14.192;2023-05-10T01:06:39;12.70;58.06
75457;SHT31;64036;48.266;14.192;2023-05-10T01:09:05;12.69;58.13
75457;SHT31;64036;48.266;14.192;2023-05-10T01:11:35;12.66;58.16
75457;SHT31;64036;48.266;14.192;2023-05-10T01:14:03;12.64;58.17
75457;SHT31;64036;48.266;14.192;2023-05-10T01:16:32;12.61;58.15
75457;SHT31;64036;48.266;14.192;2023-05-10T01:19:12;12.60;58.15
75457;SHT31;64036;48.266;14.192;2023-05-10T01:28:15;12.45;58.64
75457;SHT31;64036;48.266;14.192;2023-05-10T01:31:27;12.40;58.89
75457;SHT31;64036;48.266;14.192;2023-05-10T01:34:38;12.27;59.51
75457;SHT31;64036;48.266;14.192;2023-05-10T01:37:13;12.20;59.61
75457;SHT31;64036;48.266;14.192;2023-05-10T01:39:47;12.17;59.69
75457;SHT31;64036;48.266;14.192;2023-05-10T01:42:44;12.11;59.71
75457;SHT31;64036;48.266;14.192;2023-05-10T01:48:38;12.02;59.97
75457;SHT31;64036;48.266;14.192;2023-05-10T01:51:12;12.00;59.78
75457;SHT31;64036;48.266;14.192;2023-05-10T01:53:44;12.03;59.52
75457;SHT31;64036;48.266;14.192;2023-05-10T01:56:12;12.04;59.62
75457;SHT31;64036;48.266;14.192;2023-05-10T01:58:44;11.96;60.30
75457;SHT31;64036;48.266;14.192;2023-05-10T02:01:13;11.88;60.37
75457;SHT31;64036;48.266;14.192;2023-05-10T02:03:39;11.86;60.31
75457;SHT31;64036;48.266;14.192;2023-05-10T02:06:08;11.82;60.58
75457;SHT31;64036;48.266;14.192;2023-05-10T02:08:35;11.74;60.98
75457;SHT31;64036;48.266;14.192;2023-05-10T02:11:02;11.58;61.74
75457;SHT31;64036;48.266;14.192;2023-05-10T02:13:30;11.44;62.37
75457;SHT31;64036;48.266;14.192;2023-05-10T02:15:58;11.35;62.93
75457;SHT31;64036;48.266;14.192;2023-05-10T02:18:25;11.27;63.31
75457;SHT31;64036;48.266;14.192;2023-05-10T02:20:55;11.13;64.03
75457;SHT31;64036;48.266;14.192;2023-05-10T02:23:23;10.98;64.40
75457;SHT31;64036;48.266;14.192;2023-05-10T02:25:50;10.92;64.61
75457;SHT31;64036;48.266;14.192;2023-05-10T02:28:19;10.88;64.60
75457;SHT31;64036;48.266;14.192;2023-05-10T02:30:46;10.87;64.47
75457;SHT31;64036;48.266;14.192;2023-05-10T02:33:12;10.89;64.38
75457;SHT31;64036;48.266;14.192;2023-05-10T02:35:39;10.89;64.31
75457;SHT31;64036;48.266;14.192;2023-05-10T02:38:06;10.88;64.36
75457;SHT31;64036;48.266;14.192;2023-05-10T02:40:33;10.86;64.51
75457;SHT31;64036;48.266;14.192;2023-05-10T02:43:01;10.83;64.66
75457;SHT31;64036;48.266;14.192;2023-05-10T02:45:29;10.78;64.87
75457;SHT31;64036;48.266;14.192;2023-05-10T02:47:56;10.73;64.90
75457;SHT31;64036;48.266;14.192;2023-05-10T02:50:22;10.73;65.08
75457;SHT31;64036;48.266;14.192;2023-05-10T02:52:51;10.76;64.81
75457;SHT31;64036;48.266;14.192;2023-05-10T02:55:25;10.78;64.64
75457;SHT31;64036;48.266;14.192;2023-05-10T02:57:58;10.78;64.56
75457;SHT31;64036;48.266;14.192;2023-05-10T03:00:26;10.81;64.51
75457;SHT31;64036;48.266;14.192;2023-05-10T03:02:53;10.84;64.40
75457;SHT31;64036;48.266;14.192;2023-05-10T03:05:19;10.84;64.40
75457;SHT31;64036;48.266;14.192;2023-05-10T03:07:45;10.86;64.32
75457;SHT31;64036;48.266;14.192;2023-05-10T03:10:21;10.88;64.30
75457;SHT31;64036;48.266;14.192;2023-05-10T03:13:06;10.89;64.34
75457;SHT31;64036;48.266;14.192;2023-05-10T03:19:01;10.85;64.69
75457;SHT31;64036;48.266;14.192;2023-05-10T03:21:34;10.85;64.59
75457;SHT31;64036;48.266;14.192;2023-05-10T03:24:16;10.88;64.62
75457;SHT31;64036;48.266;14.192;2023-05-10T03:26:46;10.91;64.58
75457;SHT31;64036;48.266;14.192;2023-05-10T03:29:18;10.95;64.53
75457;SHT31;64036;48.266;14.192;2023-05-10T03:31:44;11.00;64.72
75457;SHT31;64036;48.266;14.192;2023-05-10T03:34:14;11.04;65.00
75457;SHT31;64036;48.266;14.192;2023-05-10T03:36:42;11.09;65.01
75457;SHT31;64036;48.266;14.192;2023-05-10T03:39:10;11.16;64.85
75457;SHT31;64036;48.266;14.192;2023-05-10T03:41:36;11.21;64.92
75457;SHT31;64036;48.266;14.192;2023-05-10T03:44:02;11.21;65.04
75457;SHT31;64036;48.266;14.192;2023-05-10T03:46:28;11.27;64.98
75457;SHT31;64036;48.266;14.192;2023-05-10T03:48:53;11.42;64.72
75457;SHT31;64036;48.266;14.192;2023-05-10T03:51:19;11.72;64.30
75457;SHT31;64036;48.266;14.192;2023-05-10T03:53:53;12.01;63.83
75457;SHT31;64036;48.266;14.192;2023-05-10T03:56:20;12.11;63.59
75457;SHT31;64036;48.266;14.192;2023-05-10T03:58:48;12.19;63.11
75457;SHT31;64036;48.266;14.192;2023-05-10T04:01:14;12.27;63.00
75457;SHT31;64036;48.266;14.192;2023-05-10T04:03:40;12.49;62.57
75457;SHT31;64036;48.266;14.192;2023-05-10T04:06:06;12.77;62.23
75457;SHT31;64036;48.266;14.192;2023-05-10T04:08:34;13.03;61.51
75457;SHT31;64036;48.266;14.192;2023-05-10T04:11:17;13.07;60.95
75457;SHT31;64036;48.266;14.192;2023-05-10T04:13:43;12.97;60.82
75457;SHT31;64036;48.266;14.192;2023-05-10T04:16:09;12.83;61.25
75457;SHT31;64036;48.266;14.192;2023-05-10T04:18:37;12.71;61.67
75457;SHT31;64036;48.266;14.192;2023-05-10T04:21:16;12.57;61.87
75457;SHT31;64036;48.266;14.192;2023-05-10T04:23:41;12.51;62.15
75457;SHT31;64036;48.266;14.192;2023-05-10T04:26:07;12.46;62.63
75457;SHT31;64036;48.266;14.192;2023-05-10T04:28:38;12.43;63.16
75457;SHT31;64036;48.266;14.192;2023-05-10T04:31:05;12.43;63.56
75457;SHT31;64036;48.266;14.192;2023-05-10T04:33:33;12.40;62.70
75457;SHT31;64036;48.266;14.192;2023-05-10T04:35:59;12.38;62.60
75457;SHT31;64036;48.266;14.192;2023-05-10T04:38:25;12.40;62.72
75457;SHT31;64036;48.266;14.192;2023-05-10T04:40:52;12.41;62.59
75457;SHT31;64036;48.266;14.192;2023-05-10T04:43:18;12.43;62.67
75457;SHT31;64036;48.266;14.192;2023-05-10T04:45:44;12.47;62.76
75457;SHT31;64036;48.266;14.192;2023-05-10T04:48:09;12.54;62.72
75457;SHT31;64036;48.266;14.192;2023-05-10T04:50:36;12.66;62.39
75457;SHT31;64036;48.266;14.192;2023-05-10T04:53:02;12.74;62.26
75457;SHT31;64036;48.266;14.192;2023-05-10T04:55:27;12.81;62.11
75457;SHT31;64036;48.266;14.192;2023-05-10T04:57:53;12.85;62.15
75457;SHT31;64036;48.266;14.192;2023-05-10T05:00:21;12.90;62.23
75457;SHT31;64036;48.266;14.192;2023-05-10T05:02:47;12.96;62.01
75457;SHT31;64036;48.266;14.192;2023-05-10T05:05:13;12.99;61.55
75457;SHT31;64036;48.266;14.192;2023-05-10T05:07:39;13.03;61.66
75457;SHT31;64036;48.266;14.192;2023-05-10T05:10:05;13.10;61.62
75457;SHT31;64036;48.266;14.192;2023-05-10T05:12:32;13.12;61.43
75457;SHT31;64036;48.266;14.192;2023-05-10T05:14:58;13.17;61.50
75457;SHT31;64036;48.266;14.192;2023-05-10T05:17:24;13.18;61.44
75457;SHT31;64036;48.266;14.192;2023-05-10T05:19:50;13.13;61.64
75457;SHT31;64036;48.266;14.192;2023-05-10T05:22:16;13.10;61.63
75457;SHT31;64036;48.266;14.192;2023-05-10T05:24:41;13.12;61.60
75457;SHT31;64036;48.266;14.192;2023-05-10T05:27:07;13.08;61.52
75457;SHT31;64036;48.266;14.192;2023-05-10T05:29:33;13.09;61.13
75457;SHT31;64036;48.266;14.192;2023-05-10T05:31:58;13.12;61.64
75457;SHT31;64036;48.266;14.192;2023-05-10T05:34:25;13.12;61.51
75457;SHT31;64036;48.266;14.192;2023-05-10T05:36:51;13.12;61.24
75457;SHT31;64036;48.266;14.192;2023-05-10T05:39:16;13.17;61.33
75457;SHT31;64036;48.266;14.192;2023-05-10T05:41:42;13.16;61.57
75457;SHT31;64036;48.266;14.192;2023-05-10T05:44:08;13.17;61.57
75457;SHT31;64036;48.266;14.192;2023-05-10T05:46:34;13.15;61.09
75457;SHT31;64036;48.266;14.192;2023-05-10T05:48:59;13.11;60.68
75457;SHT31;64036;48.266;14.192;2023-05-10T05:51:27;13.06;60.89
75457;SHT31;64036;48.266;14.192;2023-05-10T05:53:53;12.99;61.25
75457;SHT31;64036;48.266;14.192;2023-05-10T05:56:19;13.00;61.69
75457;SHT31;64036;48.266;14.192;2023-05-10T05:58:52;12.99;61.74
75457;SHT31;64036;48.266;14.192;2023-05-10T06:01:18;13.02;61.89
75457;SHT31;64036;48.266;14.192;2023-05-10T06:03:43;13.06;62.03
75457;SHT31;64036;48.266;14.192;2023-05-10T06:06:09;13.12;61.89
75457;SHT31;64036;48.266;14.192;2023-05-10T06:08:35;13.16;61.82
75457;SHT31;64036;48.266;14.192;2023-05-10T06:11:00;13.16;61.78
75457;SHT31;64036;48.266;14.192;2023-05-10T06:13:26;13.13;61.79
75457;SHT31;64036;48.266;14.192;2023-05-10T06:15:57;13.13;61.79
75457;SHT31;64036;48.266;14.192;2023-05-10T06:18:23;13.12;61.74
75457;SHT31;64036;48.266;14.192;2023-05-10T06:20:49;13.09;61.82
75457;SHT31;64036;48.266;14.192;2023-05-10T06:23:15;13.11;62.01
75457;SHT31;64036;48.266;14.192;2023-05-10T06:25:41;13.11;61.99
75457;SHT31;64036;48.266;14.192;2023-05-10T06:28:06;13.07;62.24
75457;SHT31;64036;48.266;14.192;2023-05-10T06:30:32;12.98;62.53
75457;SHT31;64036;48.266;14.192;2023-05-10T06:32:58;12.95;62.63
75457;SHT31;64036;48.266;14.192;2023-05-10T06:35:24;12.94;63.12
75457;SHT31;64036;48.266;14.192;2023-05-10T06:37:50;12.96;63.15
75457;SHT31;64036;48.266;14.192;2023-05-10T06:40:16;13.01;63.43
75457;SHT31;64036;48.266;14.192;2023-05-10T06:42:42;12.99;63.59
75457;SHT31;64036;48.266;14.192;2023-05-10T06:45:10;12.98;63.58
75457;SHT31;64036;48.266;14.192;2023-05-10T06:47:36;12.97;63.58
75457;SHT31;64036;48.266;14.192;2023-05-10T06:50:01;12.96;63.71
75457;SHT31;64036;48.266;14.192;2023-05-10T06:52:28;12.97;63.83
75457;SHT31;64036;48.266;14.192;2023-05-10T06:54:53;12.99;63.90
75457;SHT31;64036;48.266;14.192;2023-05-10T06:57:19;13.00;64.07
75457;SHT31;64036;48.266;14.192;2023-05-10T06:59:45;13.01;64.22
75457;SHT31;64036;48.266;14.192;2023-05-10T07:02:11;13.05;64.46
75457;SHT31;64036;48.266;14.192;2023-05-10T07:04:37;13.12;64.49
75457;SHT31;64036;48.266;14.192;2023-05-10T07:07:02;13.18;64.53
75457;SHT31;64036;48.266;14.192;2023-05-10T07:09:28;13.23;64.32
75457;SHT31;64036;48.266;14.192;2023-05-10T07:11:54;13.37;64.41
75457;SHT31;64036;48.266;14.192;2023-05-10T07:14:22;13.51;64.14
75457;SHT31;64036;48.266;14.192;2023-05-10T07:16:47;13.58;63.88
75457;SHT31;64036;48.266;14.192;2023-05-10T07:19:13;13.70;63.88
75457;SHT31;64036;48.266;14.192;2023-05-10T07:21:39;13.79;63.83
75457;SHT31;64036;48.266;14.192;2023-05-10T07:24:07;13.84;63.60
75457;SHT31;64036;48.266;14.192;2023-05-10T07:26:33;13.86;63.39
75457;SHT31;64036;48.266;14.192;2023-05-10T07:28:58;13.86;63.62
75457;SHT31;64036;48.266;14.192;2023-05-10T07:31:24;13.90;63.66
75457;SHT31;64036;48.266;14.192;2023-05-10T07:33:49;13.86;63.51
75457;SHT31;64036;48.266;14.192;2023-05-10T07:36:15;13.84;63.72
75457;SHT31;64036;48.266;14.192;2023-05-10T07:38:41;13.84;63.86
75457;SHT31;64036;48.266;14.192;2023-05-10T07:41:06;13.88;64.04
75457;SHT31;64036;48.266;14.192;2023-05-10T07:43:38;13.82;64.11
75457;SHT31;64036;48.266;14.192;2023-05-10T07:46:15;13.76;64.38
75457;SHT31;64036;48.266;14.192;2023-05-10T07:48:41;13.68;64.49
75457;SHT31;64036;48.266;14.192;2023-05-10T07:51:29;13.68;64.91
75457;SHT31;64036;48.266;14.192;2023-05-10T07:54:04;13.63;65.75
75457;SHT31;64036;48.266;14.192;2023-05-10T07:56:30;13.53;66.45
75457;SHT31;64036;48.266;14.192;2023-05-10T07:59:03;13.46;66.88
75457;SHT31;64036;48.266;14.192;2023-05-10T08:01:31;13.40;67.06
75457;SHT31;64036;48.266;14.192;2023-05-10T08:03:59;13.36;67.39
75457;SHT31;64036;48.266;14.192;2023-05-10T08:06:25;13.30;67.77
75457;SHT31;64036;48.266;14.192;2023-05-10T08:08:52;13.24;68.06
75457;SHT31;64036;48.266;14.192;2023-05-10T08:11:21;13.23;68.41
75457;SHT31;64036;48.266;14.192;2023-05-10T08:13:48;13.22;68.69
75457;SHT31;64036;48.266;14.192;2023-05-10T08:16:43;13.26;68.59
75457;SHT31;64036;48.266;14.192;2023-05-10T08:19:08;13.25;69.06
75457;SHT31;64036;48.266;14.192;2023-05-10T08:21:34;13.20;69.72
75457;SHT31;64036;48.266;14.192;2023-05-10T08:24:00;13.18;70.03
75457;SHT31;64036;48.266;14.192;2023-05-10T08:26:26;13.17;70.32
75457;SHT31;64036;48.266;14.192;2023-05-10T08:28:52;13.11;70.53
75457;SHT31;64036;48.266;14.192;2023-05-10T08:31:17;13.07;70.73
75457;SHT31;64036;48.266;14.192;2023-05-10T08:33:43;13.07;71.06
75457;SHT31;64036;48.266;14.192;2023-05-10T08:36:09;13.14;71.45
75457;SHT31;64036;48.266;14.192;2023-05-10T08:38:35;13.21;72.00
75457;SHT31;64036;48.266;14.192;2023-05-10T08:41:03;13.21;72.08
75457;SHT31;64036;48.266;14.192;2023-05-10T08:43:30;13.28;72.35
75457;SHT31;64036;48.266;14.192;2023-05-10T08:45:56;13.34;72.63
75457;SHT31;64036;48.266;14.192;2023-05-10T08:48:29;13.47;72.79
75457;SHT31;64036;48.266;14.192;2023-05-10T08:50:56;13.57;72.76
75457;SHT31;64036;48.266;14.192;2023-05-10T08:53:25;13.68;72.67
75457;SHT31;64036;48.266;14.192;2023-05-10T08:55:54;13.82;72.91
75457;SHT31;64036;48.266;14.192;2023-05-10T08:58:20;13.91;72.55
75457;SHT31;64036;48.266;14.192;2023-05-10T09:00:47;13.99;72.10
75457;SHT31;64036;48.266;14.192;2023-05-10T09:03:15;14.04;72.01
75457;SHT31;64036;48.266;14.192;2023-05-10T09:05:42;14.10;71.48
75457;SHT31;64036;48.266;14.192;2023-05-10T09:08:08;14.06;70.75
75457;SHT31;64036;48.266;14.192;2023-05-10T09:10:34;13.99;70.27
75457;SHT31;64036;48.266;14.192;2023-05-10T09:13:00;14.02;70.23
75457;SHT31;64036;48.266;14.192;2023-05-10T09:15:26;14.06;69.90
75457;SHT31;64036;48.266;14.192;2023-05-10T09:17:52;14.08;69.50
75457;SHT31;64036;48.266;14.192;2023-05-10T09:20:17;14.16;69.79
75457;SHT31;64036;48.266;14.192;2023-05-10T09:22:44;14.32;69.99
75457;SHT31;64036;48.266;14.192;2023-05-10T09:25:11;14.41;69.46
75457;SHT31;64036;48.266;14.192;2023-05-10T09:27:43;14.48;69.91
75457;SHT31;64036;48.266;14.192;2023-05-10T09:30:11;14.63;69.79
75457;SHT31;64036;48.266;14.192;2023-05-10T09:32:44;14.85;69.99
75457;SHT31;64036;48.266;14.192;2023-05-10T09:35:15;14.99;69.40
75457;SHT31;64036;48.266;14.192;2023-05-10T09:37:45;15.08;69.08
75457;SHT31;64036;48.266;14.192;2023-05-10T09:40:14;15.16;69.17
75457;SHT31;64036;48.266;14.192;2023-05-10T09:42:51;15.34;68.99
75457;SHT31;64036;48.266;14.192;2023-05-10T09:45:23;15.44;68.67
75457;SHT31;64036;48.266;14.192;2023-05-10T09:47:50;15.55;68.43
75457;SHT31;64036;48.266;14.192;2023-05-10T09:50:16;15.66;68.10
75457;SHT31;64036;48.266;14.192;2023-05-10T09:55:16;15.94;67.84
75457;SHT31;64036;48.266;14.192;2023-05-10T09:57:45;15.95;67.37
75457;SHT31;64036;48.266;14.192;2023-05-10T10:00:16;15.89;67.49
75457;SHT31;64036;48.266;14.192;2023-05-10T10:02:54;15.75;67.31
75457;SHT31;64036;48.266;14.192;2023-05-10T10:05:32;15.56;67.46
75457;SHT31;64036;48.266;14.192;2023-05-10T10:08:01;15.37;67.88
75457;SHT31;64036;48.266;14.192;2023-05-10T10:10:31;15.22;68.39
75457;SHT31;64036;48.266;14.192;2023-05-10T10:12:58;15.14;68.76
75457;SHT31;64036;48.266;14.192;2023-05-10T10:15:24;15.10;68.88
75457;SHT31;64036;48.266;14.192;2023-05-10T10:17:50;15.12;69.17
75457;SHT31;64036;48.266;14.192;2023-05-10T10:20:18;15.21;69.28
75457;SHT31;64036;48.266;14.192;2023-05-10T10:22:46;15.27;69.38
75457;SHT31;64036;48.266;14.192;2023-05-10T10:25:13;15.20;69.20
75457;SHT31;64036;48.266;14.192;2023-05-10T10:30:37;15.24;69.78
75457;SHT31;64036;48.266;14.192;2023-05-10T10:36:14;15.17;70.42
75457;SHT31;64036;48.266;14.192;2023-05-10T10:50:22;14.86;72.48
75457;SHT31;64036;48.266;14.192;2023-05-10T10:52:28;14.87;72.69
75457;SHT31;64036;48.266;14.192;2023-05-10T11:07:58;15.56;72.20
75457;SHT31;64036;48.266;14.192;2023-05-10T11:10:26;15.70;71.80
75457;SHT31;64036;48.266;14.192;2023-05-10T11:12:53;15.83;71.63
75457;SHT31;64036;48.266;14.192;2023-05-10T11:15:36;15.93;71.68
75457;SHT31;64036;48.266;14.192;2023-05-10T11:18:19;15.96;71.30
75457;SHT31;64036;48.266;14.192;2023-05-10T11:20:50;15.91;71.53
75457;SHT31;64036;48.266;14.192;2023-05-10T11:23:32;15.92;71.76
75457;SHT31;64036;48.266;14.192;2023-05-10T11:25:59;15.97;71.69
75457;SHT31;64036;48.266;14.192;2023-05-10T11:28:26;16.06;71.43
75457;SHT31;64036;48.266;14.192;2023-05-10T11:30:53;16.12;71.12
75457;SHT31;64036;48.266;14.192;2023-05-10T11:33:19;16.13;71.23
75457;SHT31;64036;48.266;14.192;2023-05-10T11:35:45;16.10;71.20
75457;SHT31;64036;48.266;14.192;2023-05-10T11:38:12;16.11;71.68
75457;SHT31;64036;48.266;14.192;2023-05-10T11:40:39;16.06;71.92
75457;SHT31;64036;48.266;14.192;2023-05-10T11:43:05;15.81;72.38
75457;SHT31;64036;48.266;14.192;2023-05-10T11:45:32;15.58;72.98
75457;SHT31;64036;48.266;14.192;2023-05-10T11:47:58;15.54;73.21
75457;SHT31;64036;48.266;14.192;2023-05-10T11:50:25;15.62;73.07
75457;SHT31;64036;48.266;14.192;2023-05-10T11:52:54;15.75;72.84
75457;SHT31;64036;48.266;14.192;2023-05-10T11:55:21;15.88;73.06
75457;SHT31;64036;48.266;14.192;2023-05-10T11:57:52;15.95;73.03
75457;SHT31;64036;48.266;14.192;2023-05-10T12:00:20;15.80;73.06
75457;SHT31;64036;48.266;14.192;2023-05-10T12:02:46;15.75;73.88
75457;SHT31;64036;48.266;14.192;2023-05-10T12:05:12;15.58;74.14
75457;SHT31;64036;48.266;14.192;2023-05-10T12:07:38;15.45;74.56
75457;SHT31;64036;48.266;14.192;2023-05-10T12:10:10;15.38;75.16
75457;SHT31;64036;48.266;14.192;2023-05-10T12:12:43;15.31;74.98
75457;SHT31;64036;48.266;14.192;2023-05-10T12:17:47;15.30;75.13
75457;SHT31;64036;48.266;14.192;2023-05-10T12:20:17;15.26;75.34
75457;SHT31;64036;48.266;14.192;2023-05-10T12:22:49;15.14;76.06
75457;SHT31;64036;48.266;14.192;2023-05-10T12:25:21;15.11;76.52
75457;SHT31;64036;48.266;14.192;2023-05-10T12:27:51;15.12;76.52
75457;SHT31;64036;48.266;14.192;2023-05-10T12:30:27;15.15;76.70
75457;SHT31;64036;48.266;14.192;2023-05-10T12:33:14;15.16;76.29
75457;SHT31;64036;48.266;14.192;2023-05-10T12:35:43;15.11;76.37
75457;SHT31;64036;48.266;14.192;2023-05-10T12:38:32;15.10;76.56
75457;SHT31;64036;48.266;14.192;2023-05-10T12:41:00;15.02;76.73
75457;SHT31;64036;48.266;14.192;2023-05-10T12:43:28;14.92;76.96
75457;SHT31;64036;48.266;14.192;2023-05-10T12:45:54;14.94;77.29
75457;SHT31;64036;48.266;14.192;2023-05-10T12:48:21;15.05;77.16
75457;SHT31;64036;48.266;14.192;2023-05-10T12:50:47;15.19;76.96
75457;SHT31;64036;48.266;14.192;2023-05-10T12:53:13;15.24;76.73
75457;SHT31;64036;48.266;14.192;2023-05-10T12:55:43;15.28;76.73
75457;SHT31;64036;48.266;14.192;2023-05-10T12:58:09;15.35;76.79
75457;SHT31;64036;48.266;14.192;2023-05-10T13:00:35;15.39;77.13
75457;SHT31;64036;48.266;14.192;2023-05-10T13:03:03;15.39;77.07
75457;SHT31;64036;48.266;14.192;2023-05-10T13:05:31;15.39;77.05
75457;SHT31;64036;48.266;14.192;2023-05-10T13:08:00;15.45;77.09
75457;SHT31;64036;48.266;14.192;2023-05-10T13:10:26;15.56;76.55
75457;SHT31;64036;48.266;14.192;2023-05-10T13:12:53;15.73;76.45
75457;SHT31;64036;48.266;14.192;2023-05-10T13:15:18;15.91;76.42
75457;SHT31;64036;48.266;14.192;2023-05-10T13:17:44;16.04;76.15
75457;SHT31;64036;48.266;14.192;2023-05-10T13:20:10;16.18;76.01
75457;SHT31;64036;48.266;14.192;2023-05-10T13:22:36;16.25;75.52
75457;SHT31;64036;48.266;14.192;2023-05-10T13:25:02;16.27;75.24
75457;SHT31;64036;48.266;14.192;2023-05-10T13:27:27;16.23;74.99
75457;SHT31;64036;48.266;14.192;2023-05-10T13:29:53;16.25;74.79
75457;SHT31;64036;48.266;14.192;2023-05-10T13:32:20;16.36;74.67
75457;SHT31;64036;48.266;14.192;2023-05-10T13:34:46;16.53;74.45
75457;SHT31;64036;48.266;14.192;2023-05-10T13:37:11;16.74;74.48
75457;SHT31;64036;48.266;14.192;2023-05-10T13:39:37;16.90;74.34
75457;SHT31;64036;48.266;14.192;2023-05-10T13:42:03;16.98;73.80
75457;SHT31;64036;48.266;14.192;2023-05-10T13:44:30;16.99;73.46
75457;SHT31;64036;48.266;14.192;2023-05-10T13:46:56;16.93;73.46
75457;SHT31;64036;48.266;14.192;2023-05-10T13:49:22;16.89;73.70
75457;SHT31;64036;48.266;14.192;2023-05-10T13:51:47;16.89;73.48
75457;SHT31;64036;48.266;14.192;2023-05-10T13:54:13;16.85;73.34
75457;SHT31;64036;48.266;14.192;2023-05-10T13:56:39;16.83;73.64
75457;SHT31;64036;48.266;14.192;2023-05-10T13:59:07;16.79;73.69
75457;SHT31;64036;48.266;14.192;2023-05-10T14:01:33;16.70;73.94
75457;SHT31;64036;48.266;14.192;2023-05-10T14:03:59;16.61;74.02
75457;SHT31;64036;48.266;14.192;2023-05-10T14:06:25;16.54;74.05
75457;SHT31;64036;48.266;14.192;2023-05-10T14:08:52;16.49;74.17
75457;SHT31;64036;48.266;14.192;2023-05-10T14:11:18;16.45;74.19
75457;SHT31;64036;48.266;14.192;2023-05-10T14:13:45;16.41;74.18
75457;SHT31;64036;48.266;14.192;2023-05-10T14:16:10;16.40;74.18
75457;SHT31;64036;48.266;14.192;2023-05-10T14:18:36;16.36;74.26
75457;SHT31;64036;48.266;14.192;2023-05-10T14:21:03;16.34;74.53
75457;SHT31;64036;48.266;14.192;2023-05-10T14:23:29;16.32;74.49
75457;SHT31;64036;48.266;14.192;2023-05-10T14:25:55;16.30;74.67
75457;SHT31;64036;48.266;14.192;2023-05-10T14:28:21;16.30;74.90
75457;SHT31;64036;48.266;14.192;2023-05-10T14:30:48;16.30;75.08
75457;SHT31;64036;48.266;14.192;2023-05-10T14:33:13;16.31;75.12
75457;SHT31;64036;48.266;14.192;2023-05-10T14:35:39;16.31;75.14
75457;SHT31;64036;48.266;14.192;2023-05-10T14:38:05;16.31;75.24
75457;SHT31;64036;48.266;14.192;2023-05-10T14:40:31;16.37;75.24
75457;SHT31;64036;48.266;14.192;2023-05-10T14:42:57;16.49;75.20
75457;SHT31;64036;48.266;14.192;2023-05-10T14:45:22;16.61;75.18
75457;SHT31;64036;48.266;14.192;2023-05-10T14:47:48;16.78;75.22
75457;SHT31;64036;48.266;14.192;2023-05-10T14:50:15;16.95;74.85
75457;SHT31;64036;48.266;14.192;2023-05-10T14:52:42;17.10;74.40
75457;SHT31;64036;48.266;14.192;2023-05-10T14:55:08;17.21;73.89
75457;SHT31;64036;48.266;14.192;2023-05-10T14:57:34;17.31;73.56
75457;SHT31;64036;48.266;14.192;2023-05-10T14:59:59;17.38;73.43
75457;SHT31;64036;48.266;14.192;2023-05-10T15:02:25;17.48;73.18
75457;SHT31;64036;48.266;14.192;2023-05-10T15:04:50;17.60;72.78
75457;SHT31;64036;48.266;14.192;2023-05-10T15:07:16;17.76;72.62
75457;SHT31;64036;48.266;14.192;2023-05-10T15:09:43;17.89;72.65
75457;SHT31;64036;48.266;14.192;2023-05-10T15:12:10;18.02;72.43
75457;SHT31;64036;48.266;14.192;2023-05-10T15:14:36;18.11;72.03
75457;SHT31;64036;48.266;14.192;2023-05-10T15:17:02;18.25;71.72
75457;SHT31;64036;48.266;14.192;2023-05-10T15:19:28;18.38;70.95
75457;SHT31;64036;48.266;14.192;2023-05-10T15:21:54;18.49;70.55
75457;SHT31;64036;48.266;14.192;2023-05-10T15:24:20;18.54;70.12
75457;SHT31;64036;48.266;14.192;2023-05-10T15:26:47;18.63;70.44
75457;SHT31;64036;48.266;14.192;2023-05-10T15:29:13;18.73;69.86
75457;SHT31;64036;48.266;14.192;2023-05-10T15:31:48;18.80;69.60
75457;SHT31;64036;48.266;14.192;2023-05-10T15:34:15;18.85;69.17
75457;SHT31;64036;48.266;14.192;2023-05-10T15:36:41;18.75;68.67
75457;SHT31;64036;48.266;14.192;2023-05-10T15:39:07;18.66;68.97
75457;SHT31;64036;48.266;14.192;2023-05-10T15:41:34;18.60;68.87
75457;SHT31;64036;48.266;14.192;2023-05-10T15:44:00;18.58;68.98
75457;SHT31;64036;48.266;14.192;2023-05-10T15:46:27;18.55;69.00
75457;SHT31;64036;48.266;14.192;2023-05-10T15:48:53;18.51;68.70
75457;SHT31;64036;48.266;14.192;2023-05-10T15:51:19;18.47;69.06
75457;SHT31;64036;48.266;14.192;2023-05-10T15:53:45;18.39;68.74
75457;SHT31;64036;48.266;14.192;2023-05-10T15:56:11;18.36;68.60
75457;SHT31;64036;48.266;14.192;2023-05-10T15:58:37;18.34;68.83
75457;SHT31;64036;48.266;14.192;2023-05-10T16:01:05;18.27;69.29
75457;SHT31;64036;48.266;14.192;2023-05-10T16:03:31;18.20;69.35
75457;SHT31;64036;48.266;14.192;2023-05-10T16:05:57;18.13;69.35
75457;SHT31;64036;48.266;14.192;2023-05-10T16:08:23;18.05;69.83